PANC/ANC METAR and TAF weather

Enter ICAO airport designator
Station Type Date Time Source
PANC METAR 2023/02/05 13:53 UTC NOAA

PANC 051353Z 36005KT 3SM BR OVC005 M09/M10 A2928 RMK AO2 SLP918 T10891100 CHINO N VISNO N $


Station Type Date Time Source
PANC Decoded METAR 2023/02/05 13:53 UTC NOAA

TED STEVENS ANCHORAGE INTERNATIONAL , AK, United States (PANC) 61-10N 150-02W 48M
Feb 05, 2023 - 08:53 AM EST / 2023.02.05 1353 UTC
Wind: from the N (360 degrees) at 6 MPH (5 KT):0
Visibility: 3 mile(s):0
Sky conditions: overcast
Weather: mist
Temperature: 16.0 F (-8.9 C)
Windchill: 6 F (-14 C):1
Dew Point: 14.0 F (-10.0 C)
Relative Humidity: 91%
Pressure (altimeter): 29.28 in. Hg (991 hPa)
ob: PANC 051353Z 36005KT 3SM BR OVC005 M09/M10 A2928 RMK AO2 SLP918 T10891100 CHINO N VISNO N
cycle: 14

Station Type Date Time Source
PANC TAF 2023/02/05 12:27 UTC NOAA

TAF PANC 051125Z 0512/0618 02006KT 1SM BR OVC002
TEMPO 0512/0515 1/4SM FZFG
FM051500 36004KT P6SM FEW006 BKN070
FM052000 36010G20KT P6SM BKN100

Example: see airport list